Time,TemperatureF,DewpointF,PressureIn,WindDirection,WindDirectionDegrees,WindSpeedMPH,WindSpeedGustMPH,Humidity,HourlyPrecipIn,Conditions,Clouds,dailyrainin,SoftwareType,DateUTC
2013-02-11 00:00:00,39.2,36.2,30.56,South,180,0.0,0.0,89,0.00,,---,0.00,VWS V14.01,2013-02-11 08:00:00,
2013-02-11 00:05:00,39.2,36.2,30.56,South,180,0.0,0.0,89,0.00,,---,0.00,VWS V14.01,2013-02-11 08:05:00,
2013-02-11 00:10:00,39.2,36.2,30.56,South,180,0.0,0.0,89,0.00,,---,0.00,VWS V14.01,2013-02-11 08:10:00,
2013-02-11 00:15:00,39.2,36.2,30.57,South,180,0.0,0.0,89,0.00,,---,0.00,VWS V14.01,2013-02-11 08:15:00,
2013-02-11 00:20:00,39.2,36.2,30.57,South,180,0.0,0.0,89,0.00,,---,0.00,VWS V14.01,2013-02-11 08:20:00,
2013-02-11 00:25:00,39.2,36.2,30.56,South,180,0.0,0.0,89,0.00,,---,0.00,VWS V14.01,2013-02-11 08:25:00,
2013-02-11 00:30:00,39.2,36.2,30.56,South,180,0.0,0.0,89,0.00,,---,0.00,VWS V14.01,2013-02-11 08:30:00,
2013-02-11 00:35:00,39.1,36.1,30.56,South,180,0.0,0.0,89,0.00,,---,0.00,VWS V14.01,2013-02-11 08:35:00,
2013-02-11 00:40:00,39.1,36.1,30.57,South,180,0.0,0.0,89,0.00,,---,0.00,VWS V14.01,2013-02-11 08:40:00,
2013-02-11 00:45:00,39.1,36.1,30.57,South,180,0.0,0.0,89,0.00,,---,0.00,VWS V14.01,2013-02-11 08:45:00,
2013-02-11 00:50:00,39.1,36.1,30.57,South,180,0.0,0.0,89,0.00,,---,0.00,VWS V14.01,2013-02-11 08:50:00,
2013-02-11 00:55:00,39.1,36.1,30.58,South,180,0.0,0.0,89,0.00,,---,0.00,VWS V14.01,2013-02-11 08:55:00,
2013-02-11 01:00:00,39.1,36.1,30.58,South,180,0.0,0.0,89,0.00,,---,0.00,VWS V14.01,2013-02-11 09:00:00,
2013-02-11 01:05:00,39.1,36.4,30.58,South,180,0.0,0.0,90,0.00,,---,0.00,VWS V14.01,2013-02-11 09:05:00,
2013-02-11 01:10:00,39.1,36.4,30.58,South,180,0.0,0.0,90,0.00,,---,0.00,VWS V14.01,2013-02-11 09:10:00,
2013-02-11 01:15:00,39.1,36.4,30.58,South,180,0.0,0.0,90,0.00,,---,0.00,VWS V14.01,2013-02-11 09:15:00,
2013-02-11 01:20:00,39.1,36.4,30.58,South,180,0.0,0.0,90,0.00,,---,0.00,VWS V14.01,2013-02-11 09:20:00,
2013-02-11 01:25:00,38.9,36.2,30.58,South,180,0.0,0.0,90,0.00,,---,0.00,VWS V14.01,2013-02-11 09:25:00,
2013-02-11 01:30:00,39.1,36.4,30.58,South,180,1.1,1.1,90,0.00,,---,0.00,VWS V14.01,2013-02-11 09:30:00,
2013-02-11 01:35:00,38.9,36.2,30.58,South,180,0.0,0.0,90,0.00,,---,0.00,VWS V14.01,2013-02-11 09:35:00,
2013-02-11 01:40:00,38.9,36.2,30.58,South,180,0.0,0.0,90,0.00,,---,0.00,VWS V14.01,2013-02-11 09:40:00,
2013-02-11 01:45:00,39.1,36.4,30.58,South,180,0.0,0.0,90,0.00,,---,0.00,VWS V14.01,2013-02-11 09:45:00,
2013-02-11 01:50:00,38.9,36.2,30.58,South,180,0.2,0.2,90,0.00,,---,0.00,VWS V14.01,2013-02-11 09:50:00,
2013-02-11 01:55:00,38.9,36.2,30.58,South,180,0.0,0.0,90,0.00,,---,0.00,VWS V14.01,2013-02-11 09:55:00,
2013-02-11 02:00:00,38.9,36.2,30.58,South,180,0.4,0.4,90,0.00,,---,0.00,VWS V14.01,2013-02-11 10:00:00,
2013-02-11 02:05:00,38.9,36.2,30.58,South,180,0.0,0.0,90,0.00,,---,0.00,VWS V14.01,2013-02-11 10:05:00,
2013-02-11 02:10:00,38.9,36.2,30.58,South,180,0.0,0.0,90,0.00,,---,0.00,VWS V14.01,2013-02-11 10:10:00,
2013-02-11 02:15:00,38.9,36.2,30.58,South,180,0.0,0.0,90,0.00,,---,0.00,VWS V14.01,2013-02-11 10:15:00,
2013-02-11 02:20:00,38.9,36.2,30.58,South,180,0.0,0.0,90,0.00,,---,0.00,VWS V14.01,2013-02-11 10:20:00,
2013-02-11 02:25:00,38.9,36.2,30.57,South,180,0.0,0.0,90,0.00,,---,0.00,VWS V14.01,2013-02-11 10:25:00,
2013-02-11 02:30:00,38.9,36.2,30.58,South,180,0.0,0.0,90,0.00,,---,0.00,VWS V14.01,2013-02-11 10:30:00,
2013-02-11 02:35:00,38.9,36.2,30.57,South,180,0.0,0.0,90,0.00,,---,0.00,VWS V14.01,2013-02-11 10:35:00,
2013-02-11 02:40:00,38.9,36.2,30.57,South,180,0.0,0.0,90,0.00,,---,0.00,VWS V14.01,2013-02-11 10:40:00,
2013-02-11 02:45:00,38.9,36.2,30.57,South,180,0.0,0.0,90,0.00,,---,0.00,VWS V14.01,2013-02-11 10:45:00,
2013-02-11 02:50:00,38.9,36.2,30.57,South,180,0.0,0.0,90,0.00,,---,0.00,VWS V14.01,2013-02-11 10:50:00,
2013-02-11 02:55:00,38.9,36.2,30.56,South,180,0.0,0.0,90,0.00,,---,0.00,VWS V14.01,2013-02-11 10:55:00,
2013-02-11 03:00:00,38.9,36.2,30.56,South,180,0.0,0.0,90,0.00,,---,0.00,VWS V14.01,2013-02-11 11:00:00,
2013-02-11 03:05:00,38.9,36.2,30.56,South,180,0.0,0.0,90,0.00,,---,0.00,VWS V14.01,2013-02-11 11:05:00,
2013-02-11 03:10:00,38.9,36.2,30.56,South,180,0.0,0.0,90,0.00,,---,0.00,VWS V14.01,2013-02-11 11:10:00,
2013-02-11 03:15:00,38.9,36.2,30.56,South,180,0.0,0.0,90,0.00,,---,0.00,VWS V14.01,2013-02-11 11:15:00,
2013-02-11 03:20:00,38.9,36.2,30.56,South,180,0.0,0.0,90,0.00,,---,0.00,VWS V14.01,2013-02-11 11:20:00,
2013-02-11 03:25:00,38.7,36.0,30.56,South,180,0.7,0.7,90,0.00,,---,0.00,VWS V14.01,2013-02-11 11:25:00,
2013-02-11 03:30:00,38.7,36.0,30.56,South,180,0.0,0.0,90,0.00,,---,0.00,VWS V14.01,2013-02-11 11:30:00,
2013-02-11 03:35:00,38.7,36.0,30.56,South,180,0.0,0.0,90,0.00,,---,0.00,VWS V14.01,2013-02-11 11:35:00,
2013-02-11 03:40:00,38.7,36.0,30.56,South,180,0.0,0.0,90,0.00,,---,0.00,VWS V14.01,2013-02-11 11:40:00,
2013-02-11 03:45:00,38.7,36.0,30.56,South,180,0.0,0.0,90,0.00,,---,0.00,VWS V14.01,2013-02-11 11:45:00,
2013-02-11 03:50:00,38.7,36.0,30.56,South,180,0.0,0.0,90,0.00,,---,0.00,VWS V14.01,2013-02-11 11:50:00,
2013-02-11 03:55:00,38.7,36.0,30.56,South,180,0.0,0.0,90,0.00,,---,0.00,VWS V14.01,2013-02-11 11:55:00,
2013-02-11 04:00:00,38.7,36.0,30.56,South,180,0.0,0.0,90,0.00,,---,0.00,VWS V14.01,2013-02-11 12:00:00,
2013-02-11 04:04:00,38.7,36.0,30.56,South,180,0.0,0.0,90,0.00,,---,0.00,VWS V14.01,2013-02-11 12:04:00,
2013-02-11 04:09:00,38.7,36.0,30.56,South,180,0.0,0.0,90,0.00,,---,0.00,VWS V14.01,2013-02-11 12:09:00,
2013-02-11 04:14:00,38.7,36.0,30.56,South,180,0.0,0.0,90,0.00,,---,0.00,VWS V14.01,2013-02-11 12:14:00,
2013-02-11 04:19:00,38.7,36.0,30.56,South,180,0.0,0.0,90,0.00,,---,0.00,VWS V14.01,2013-02-11 12:19:00,
2013-02-11 04:24:00,38.5,35.8,30.57,South,180,0.0,0.0,90,0.00,,---,0.00,VWS V14.01,2013-02-11 12:24:00,
2013-02-11 04:29:00,38.5,35.8,30.57,South,180,0.0,0.0,90,0.00,,---,0.00,VWS V14.01,2013-02-11 12:29:00,
2013-02-11 04:34:00,38.5,35.8,30.57,South,180,0.0,0.0,90,0.00,,---,0.00,VWS V14.01,2013-02-11 12:34:00,
2013-02-11 04:39:00,38.5,35.8,30.56,South,180,0.0,0.0,90,0.00,,---,0.00,VWS V14.01,2013-02-11 12:39:00,
2013-02-11 04:44:00,38.5,35.8,30.57,South,180,0.0,0.0,90,0.00,,---,0.00,VWS V14.01,2013-02-11 12:44:00,
2013-02-11 04:49:00,38.5,35.8,30.57,South,180,0.0,0.0,90,0.00,,---,0.00,VWS V14.01,2013-02-11 12:49:00,
2013-02-11 04:54:00,38.5,35.8,30.57,South,180,0.0,0.0,90,0.00,,---,0.00,VWS V14.01,2013-02-11 12:54:00,
2013-02-11 04:59:00,38.5,35.8,30.57,South,180,0.0,0.0,90,0.00,,---,0.00,VWS V14.01,2013-02-11 12:59:00,
2013-02-11 05:04:00,38.5,35.8,30.57,South,180,0.0,0.0,90,0.00,,---,0.00,VWS V14.01,2013-02-11 13:04:00,
2013-02-11 05:09:00,38.5,35.8,30.58,South,180,0.0,0.0,90,0.00,,---,0.00,VWS V14.01,2013-02-11 13:09:00,
2013-02-11 05:14:00,38.3,35.6,30.58,South,180,0.0,0.0,90,0.00,,---,0.00,VWS V14.01,2013-02-11 13:14:00,
2013-02-11 05:19:00,38.3,35.6,30.57,South,180,0.0,0.0,90,0.00,,---,0.00,VWS V14.01,2013-02-11 13:19:00,
2013-02-11 05:24:00,38.3,35.9,30.57,South,180,0.0,0.0,91,0.00,,---,0.00,VWS V14.01,2013-02-11 13:24:00,
2013-02-11 05:29:00,38.3,35.6,30.57,South,180,0.0,0.0,90,0.00,,---,0.00,VWS V14.01,2013-02-11 13:29:00,
2013-02-11 05:34:00,38.3,35.9,30.57,South,180,0.0,0.0,91,0.00,,---,0.00,VWS V14.01,2013-02-11 13:34:00,
2013-02-11 05:39:00,38.2,35.8,30.57,South,180,0.0,0.0,91,0.00,,---,0.00,VWS V14.01,2013-02-11 13:39:00,
2013-02-11 05:44:00,38.2,35.8,30.57,South,180,1.8,1.8,91,0.00,,---,0.00,VWS V14.01,2013-02-11 13:44:00,
2013-02-11 05:49:00,38.2,35.8,30.57,South,180,0.4,0.4,91,0.00,,---,0.00,VWS V14.01,2013-02-11 13:49:00,
2013-02-11 05:54:00,38.2,35.8,30.57,South,180,0.0,0.4,91,0.00,,---,0.00,VWS V14.01,2013-02-11 13:54:00,
2013-02-11 05:59:00,38.2,35.8,30.57,South,180,0.4,0.4,91,0.00,,---,0.00,VWS V14.01,2013-02-11 13:59:00,
2013-02-11 06:04:00,38.0,35.6,30.56,South,180,0.0,0.0,91,0.00,,---,0.00,VWS V14.01,2013-02-11 14:04:00,
2013-02-11 06:09:00,37.8,35.4,30.57,South,180,0.0,0.0,91,0.00,,---,0.00,VWS V14.01,2013-02-11 14:09:00,
2013-02-11 06:14:00,37.8,35.4,30.57,South,180,0.0,0.0,91,0.00,,---,0.00,VWS V14.01,2013-02-11 14:14:00,
2013-02-11 06:19:00,37.8,35.4,30.57,South,180,0.0,0.0,91,0.00,,---,0.00,VWS V14.01,2013-02-11 14:19:00,
2013-02-11 06:24:00,37.8,35.4,30.57,South,180,0.0,0.0,91,0.00,,---,0.00,VWS V14.01,2013-02-11 14:24:00,
2013-02-11 06:29:00,37.8,35.1,30.57,South,180,0.0,0.0,90,0.00,,---,0.00,VWS V14.01,2013-02-11 14:29:00,
2013-02-11 06:34:00,37.4,34.7,30.57,South,180,0.0,0.0,90,0.00,,---,0.00,VWS V14.01,2013-02-11 14:34:00,
2013-02-11 06:39:00,37.4,35.0,30.57,South,180,0.0,0.0,91,0.00,,---,0.00,VWS V14.01,2013-02-11 14:39:00,
2013-02-11 06:44:00,37.4,34.7,30.57,South,180,0.0,0.0,90,0.00,,---,0.00,VWS V14.01,2013-02-11 14:44:00,
2013-02-11 06:49:00,37.3,34.6,30.56,South,180,0.0,0.0,90,0.00,,---,0.00,VWS V14.01,2013-02-11 14:49:00,
2013-02-11 06:54:00,37.1,34.4,30.56,South,180,0.0,0.0,90,0.00,,---,0.00,VWS V14.01,2013-02-11 14:54:00,
2013-02-11 06:59:00,36.9,34.2,30.56,South,180,1.1,1.1,90,0.00,,---,0.00,VWS V14.01,2013-02-11 14:59:00,
2013-02-11 07:04:00,36.9,34.2,30.57,South,180,0.7,0.7,90,0.00,,---,0.00,VWS V14.01,2013-02-11 15:04:00,
2013-02-11 07:09:00,36.7,34.0,30.57,South,180,0.0,0.0,90,0.00,,---,0.00,VWS V14.01,2013-02-11 15:09:00,
2013-02-11 07:14:00,36.4,33.8,30.57,South,180,0.0,0.0,90,0.00,,---,0.00,VWS V14.01,2013-02-11 15:14:00,
2013-02-11 07:19:00,36.4,33.8,30.57,South,180,0.4,0.4,90,0.00,,---,0.00,VWS V14.01,2013-02-11 15:19:00,
2013-02-11 07:24:00,36.0,33.4,30.56,South,180,0.0,0.0,90,0.00,,---,0.00,VWS V14.01,2013-02-11 15:24:00,
2013-02-11 07:29:00,35.8,33.2,30.57,South,180,0.0,0.0,90,0.00,,---,0.00,VWS V14.01,2013-02-11 15:29:00,
2013-02-11 07:34:00,35.8,33.2,30.57,South,180,0.0,0.0,90,0.00,,---,0.00,VWS V14.01,2013-02-11 15:34:00,
2013-02-11 07:39:00,35.6,33.0,30.57,South,180,0.0,0.0,90,0.00,,---,0.00,VWS V14.01,2013-02-11 15:39:00,
2013-02-11 07:44:00,35.6,33.0,30.58,South,180,0.0,0.0,90,0.00,,---,0.00,VWS V14.01,2013-02-11 15:44:00,
2013-02-11 07:49:00,35.5,32.9,30.58,South,180,0.0,0.0,90,0.00,,---,0.00,VWS V14.01,2013-02-11 15:49:00,
2013-02-11 07:54:00,35.3,32.7,30.57,South,180,0.0,0.0,90,0.00,,---,0.00,VWS V14.01,2013-02-11 15:54:00,
2013-02-11 07:59:00,35.3,32.7,30.57,South,180,0.4,0.4,90,0.00,,---,0.00,VWS V14.01,2013-02-11 15:59:00,
2013-02-11 08:04:00,35.1,32.5,30.57,South,180,0.2,0.2,90,0.00,,---,0.00,VWS V14.01,2013-02-11 16:04:00,
2013-02-11 08:09:00,35.1,32.5,30.57,South,180,0.0,0.0,90,0.00,,---,0.00,VWS V14.01,2013-02-11 16:09:00,
2013-02-11 08:14:00,35.1,32.5,30.57,South,180,0.0,0.0,90,0.00,,---,0.00,VWS V14.01,2013-02-11 16:14:00,
2013-02-11 08:19:00,35.1,32.5,30.58,South,180,0.0,0.0,90,0.00,,---,0.00,VWS V14.01,2013-02-11 16:19:00,
2013-02-11 08:24:00,35.1,32.5,30.57,South,180,0.0,0.0,90,0.00,,---,0.00,VWS V14.01,2013-02-11 16:24:00,
2013-02-11 08:29:00,35.1,32.5,30.58,South,180,0.4,0.4,90,0.00,,---,0.00,VWS V14.01,2013-02-11 16:29:00,
2013-02-11 08:34:00,35.1,32.5,30.58,South,180,0.0,0.0,90,0.00,,---,0.00,VWS V14.01,2013-02-11 16:34:00,
2013-02-11 08:39:00,35.3,32.7,30.58,South,180,0.0,0.0,90,0.00,,---,0.00,VWS V14.01,2013-02-11 16:39:00,
2013-02-11 08:44:00,35.5,32.9,30.58,South,180,0.0,0.0,90,0.00,,---,0.00,VWS V14.01,2013-02-11 16:44:00,
2013-02-11 08:49:00,35.6,33.0,30.58,South,180,0.0,0.0,90,0.00,,---,0.00,VWS V14.01,2013-02-11 16:49:00,
2013-02-11 08:54:00,35.8,33.4,30.58,South,180,0.0,0.0,91,0.00,,---,0.00,VWS V14.01,2013-02-11 16:54:00,
2013-02-11 08:59:00,36.2,33.8,30.58,South,180,0.0,0.0,91,0.00,,---,0.00,VWS V14.01,2013-02-11 16:59:00,
2013-02-11 09:04:00,36.4,34.0,30.58,South,180,0.0,0.0,91,0.00,,---,0.00,VWS V14.01,2013-02-11 17:04:00,
2013-02-11 09:09:00,36.7,34.3,30.58,South,180,0.7,0.7,91,0.00,,---,0.00,VWS V14.01,2013-02-11 17:09:00,
2013-02-11 09:14:00,36.9,34.5,30.58,South,180,0.9,0.9,91,0.00,,---,0.00,VWS V14.01,2013-02-11 17:14:00,
2013-02-11 09:19:00,37.1,34.7,30.58,South,180,1.6,1.8,91,0.00,,---,0.00,VWS V14.01,2013-02-11 17:19:00,
2013-02-11 09:24:00,37.6,35.2,30.58,South,180,0.7,0.7,91,0.00,,---,0.00,VWS V14.01,2013-02-11 17:24:00,
2013-02-11 09:29:00,38.2,35.8,30.58,South,180,0.0,0.2,91,0.00,,---,0.00,VWS V14.01,2013-02-11 17:29:00,
2013-02-11 09:34:00,38.5,35.8,30.58,South,180,0.7,0.7,90,0.00,,---,0.00,VWS V14.01,2013-02-11 17:34:00,
2013-02-11 09:39:00,39.2,36.8,30.58,South,180,0.4,0.4,91,0.00,,---,0.00,VWS V14.01,2013-02-11 17:39:00,
2013-02-11 09:44:00,39.8,37.4,30.58,South,180,0.7,0.7,91,0.00,,---,0.00,VWS V14.01,2013-02-11 17:44:00,
2013-02-11 09:49:00,40.0,37.3,30.58,South,180,0.0,0.0,90,0.00,,---,0.00,VWS V14.01,2013-02-11 17:49:00,
2013-02-11 09:54:00,40.5,37.8,30.59,South,180,0.0,0.4,90,0.00,,---,0.00,VWS V14.01,2013-02-11 17:54:00,
2013-02-11 09:59:00,40.9,37.9,30.59,South,180,0.0,0.0,89,0.00,,---,0.00,VWS V14.01,2013-02-11 17:59:00,
2013-02-11 10:04:00,41.0,37.7,30.58,South,180,1.1,1.1,88,0.00,,---,0.00,VWS V14.01,2013-02-11 18:04:00,
2013-02-11 10:09:00,41.4,38.1,30.59,South,180,0.0,0.0,88,0.00,,---,0.00,VWS V14.01,2013-02-11 18:09:00,
2013-02-11 10:14:00,41.6,38.0,30.58,South,180,0.0,0.0,87,0.00,,---,0.00,VWS V14.01,2013-02-11 18:14:00,
2013-02-11 10:19:00,41.9,38.3,30.58,South,180,0.0,0.0,87,0.00,,---,0.00,VWS V14.01,2013-02-11 18:19:00,
2013-02-11 10:24:00,42.1,38.2,30.58,South,180,0.7,0.7,86,0.00,,---,0.00,VWS V14.01,2013-02-11 18:24:00,
2013-02-11 10:29:00,42.5,38.6,30.58,South,180,0.0,0.0,86,0.00,,---,0.00,VWS V14.01,2013-02-11 18:29:00,
2013-02-11 10:34:00,42.5,38.3,30.58,South,180,0.0,0.0,85,0.00,,---,0.00,VWS V14.01,2013-02-11 18:34:00,
2013-02-11 10:39:00,42.7,38.5,30.59,South,180,0.0,0.0,85,0.00,,---,0.00,VWS V14.01,2013-02-11 18:39:00,
2013-02-11 10:44:00,43.0,38.8,30.58,South,180,0.0,0.7,85,0.00,,---,0.00,VWS V14.01,2013-02-11 18:44:00,
2013-02-11 10:49:00,43.0,38.5,30.58,South,180,0.4,0.4,84,0.00,,---,0.00,VWS V14.01,2013-02-11 18:49:00,
2013-02-11 10:54:00,43.2,39.0,30.58,South,180,0.7,0.7,85,0.00,,---,0.00,VWS V14.01,2013-02-11 18:54:00,
2013-02-11 10:59:00,43.4,38.9,30.58,South,180,1.3,1.3,84,0.00,,---,0.00,VWS V14.01,2013-02-11 18:59:00,
2013-02-11 11:04:00,43.7,39.2,30.58,South,180,0.0,0.0,84,0.00,,---,0.00,VWS V14.01,2013-02-11 19:04:00,
2013-02-11 11:09:00,43.9,39.4,30.58,South,180,0.0,0.0,84,0.00,,---,0.00,VWS V14.01,2013-02-11 19:09:00,
2013-02-11 11:14:00,44.3,39.5,30.58,South,180,0.0,0.0,83,0.00,,---,0.00,VWS V14.01,2013-02-11 19:14:00,
2013-02-11 11:19:00,44.3,39.5,30.58,South,180,0.4,0.4,83,0.00,,---,0.00,VWS V14.01,2013-02-11 19:19:00,
2013-02-11 11:24:00,44.5,39.4,30.58,South,180,0.9,0.9,82,0.00,,---,0.00,VWS V14.01,2013-02-11 19:24:00,
2013-02-11 11:29:00,44.6,38.8,30.58,South,180,0.4,0.4,80,0.00,,---,0.00,VWS V14.01,2013-02-11 19:29:00,
2013-02-11 11:34:00,44.8,39.3,30.58,South,180,0.4,0.7,81,0.00,,---,0.00,VWS V14.01,2013-02-11 19:34:00,
2013-02-11 11:39:00,45.0,39.5,30.58,South,180,0.0,0.4,81,0.00,,---,0.00,VWS V14.01,2013-02-11 19:39:00,
2013-02-11 11:44:00,45.0,39.2,30.58,South,180,0.0,0.0,80,0.00,,---,0.00,VWS V14.01,2013-02-11 19:44:00,
2013-02-11 11:49:00,45.0,39.2,30.58,South,180,0.0,0.0,80,0.00,,---,0.00,VWS V14.01,2013-02-11 19:49:00,
2013-02-11 11:54:00,45.4,39.6,30.58,South,180,1.1,1.1,80,0.00,,---,0.00,VWS V14.01,2013-02-11 19:54:00,
2013-02-11 11:59:00,45.4,39.6,30.58,South,180,0.0,0.0,80,0.00,,---,0.00,VWS V14.01,2013-02-11 19:59:00,
2013-02-11 12:04:00,45.5,39.7,30.58,South,180,0.4,0.4,80,0.00,,---,0.00,VWS V14.01,2013-02-11 20:04:00,
2013-02-11 12:09:00,45.7,39.6,30.58,South,180,1.8,1.8,79,0.00,,---,0.00,VWS V14.01,2013-02-11 20:09:00,
2013-02-11 12:14:00,45.7,39.9,30.58,South,180,0.0,0.0,80,0.00,,---,0.00,VWS V14.01,2013-02-11 20:14:00,
2013-02-11 12:19:00,45.7,39.2,30.57,South,180,0.9,0.9,78,0.00,,---,0.00,VWS V14.01,2013-02-11 20:19:00,
2013-02-11 12:24:00,45.7,39.9,30.57,South,180,0.4,1.1,80,0.00,,---,0.00,VWS V14.01,2013-02-11 20:24:00,
2013-02-11 12:29:00,45.7,39.9,30.57,South,180,0.0,0.0,80,0.00,,---,0.00,VWS V14.01,2013-02-11 20:29:00,
2013-02-11 12:34:00,46.1,40.6,30.57,South,180,1.6,1.6,81,0.00,,---,0.00,VWS V14.01,2013-02-11 20:34:00,
2013-02-11 12:39:00,46.3,40.8,30.57,South,180,0.0,0.0,81,0.00,,---,0.00,VWS V14.01,2013-02-11 20:39:00,
2013-02-11 12:44:00,46.1,40.6,30.57,South,180,0.0,0.0,81,0.00,,---,0.00,VWS V14.01,2013-02-11 20:44:00,
2013-02-11 12:49:00,46.3,40.8,30.57,South,180,1.8,1.8,81,0.00,,---,0.00,VWS V14.01,2013-02-11 20:49:00,
2013-02-11 12:54:00,46.4,40.9,30.57,South,180,0.0,0.0,81,0.00,,---,0.00,VWS V14.01,2013-02-11 20:54:00,
2013-02-11 12:59:00,46.4,40.9,30.57,South,180,4.0,4.0,81,0.00,,---,0.00,VWS V14.01,2013-02-11 20:59:00,
2013-02-11 13:04:00,46.4,40.2,30.57,South,180,1.8,1.8,79,0.00,,---,0.00,VWS V14.01,2013-02-11 21:04:00,
2013-02-11 13:09:00,46.4,40.6,30.56,South,180,1.1,1.1,80,0.00,,---,0.00,VWS V14.01,2013-02-11 21:09:00,
2013-02-11 13:14:00,46.4,40.6,30.56,South,180,1.8,1.8,80,0.00,,---,0.00,VWS V14.01,2013-02-11 21:14:00,
2013-02-11 13:19:00,46.6,41.1,30.56,South,180,1.1,1.1,81,0.00,,---,0.00,VWS V14.01,2013-02-11 21:19:00,
2013-02-11 13:24:00,46.8,41.3,30.56,South,180,0.9,0.9,81,0.00,,---,0.00,VWS V14.01,2013-02-11 21:24:00,
2013-02-11 13:29:00,46.8,41.0,30.56,South,180,1.1,1.3,80,0.00,,---,0.00,VWS V14.01,2013-02-11 21:29:00,
2013-02-11 13:34:00,46.8,41.0,30.56,South,180,1.8,1.8,80,0.00,,---,0.00,VWS V14.01,2013-02-11 21:34:00,
2013-02-11 13:39:00,46.8,41.0,30.56,South,180,1.1,1.1,80,0.00,,---,0.00,VWS V14.01,2013-02-11 21:39:00,
2013-02-11 13:44:00,47.0,41.2,30.56,South,180,0.7,0.7,80,0.00,,---,0.00,VWS V14.01,2013-02-11 21:44:00,
2013-02-11 13:49:00,47.2,41.4,30.56,South,180,2.0,2.0,80,0.00,,---,0.00,VWS V14.01,2013-02-11 21:49:00,
2013-02-11 13:54:00,47.0,41.5,30.56,South,180,0.2,3.4,81,0.00,,---,0.00,VWS V14.01,2013-02-11 21:54:00,
2013-02-11 13:59:00,47.0,41.5,30.56,South,180,0.0,0.0,81,0.00,,---,0.00,VWS V14.01,2013-02-11 21:59:00,
2013-02-11 14:04:00,46.8,41.3,30.56,South,180,1.1,1.1,81,0.00,,---,0.00,VWS V14.01,2013-02-11 22:04:00,
2013-02-11 14:09:00,46.8,41.3,30.56,South,180,0.9,0.9,81,0.00,,---,0.00,VWS V14.01,2013-02-11 22:09:00,
2013-02-11 14:14:00,46.8,41.6,30.56,South,180,2.0,2.0,82,0.00,,---,0.00,VWS V14.01,2013-02-11 22:14:00,
2013-02-11 14:19:00,46.6,41.4,30.56,South,180,2.7,2.7,82,0.00,,---,0.00,VWS V14.01,2013-02-11 22:19:00,
2013-02-11 14:24:00,46.3,41.4,30.56,South,180,2.0,2.0,83,0.00,,---,0.00,VWS V14.01,2013-02-11 22:24:00,
2013-02-11 14:29:00,46.1,41.2,30.56,South,180,0.7,0.9,83,0.00,,---,0.00,VWS V14.01,2013-02-11 22:29:00,
2013-02-11 14:34:00,46.3,41.4,30.56,South,180,0.7,0.7,83,0.00,,---,0.00,VWS V14.01,2013-02-11 22:34:00,
2013-02-11 14:39:00,46.3,41.4,30.56,South,180,1.8,1.8,83,0.00,,---,0.00,VWS V14.01,2013-02-11 22:39:00,
2013-02-11 14:44:00,46.1,41.5,30.56,South,180,0.0,0.0,84,0.00,,---,0.00,VWS V14.01,2013-02-11 22:44:00,
2013-02-11 14:49:00,46.1,41.5,30.56,South,180,0.0,0.0,84,0.00,,---,0.00,VWS V14.01,2013-02-11 22:49:00,
2013-02-11 14:54:00,45.9,41.3,30.55,South,180,0.4,0.7,84,0.00,,---,0.00,VWS V14.01,2013-02-11 22:54:00,
2013-02-11 14:59:00,45.9,41.7,30.55,South,180,0.0,0.0,85,0.00,,---,0.00,VWS V14.01,2013-02-11 22:59:00,
2013-02-11 15:04:00,45.7,41.5,30.55,South,180,0.2,0.2,85,0.00,,---,0.00,VWS V14.01,2013-02-11 23:04:00,
2013-02-11 15:09:00,45.7,41.5,30.55,South,180,0.9,0.9,85,0.00,,---,0.00,VWS V14.01,2013-02-11 23:09:00,
2013-02-11 15:14:00,45.7,41.5,30.56,South,180,0.7,0.7,85,0.00,,---,0.00,VWS V14.01,2013-02-11 23:14:00,
2013-02-11 15:19:00,45.7,41.5,30.56,South,180,0.0,0.0,85,0.00,,---,0.00,VWS V14.01,2013-02-11 23:19:00,
2013-02-11 15:24:00,45.5,41.3,30.56,South,180,0.0,0.0,85,0.00,,---,0.00,VWS V14.01,2013-02-11 23:24:00,
2013-02-11 15:29:00,45.7,41.5,30.56,South,180,0.0,0.0,85,0.00,,---,0.00,VWS V14.01,2013-02-11 23:29:00,
2013-02-11 15:34:00,45.5,41.6,30.56,South,180,0.0,0.0,86,0.00,,---,0.00,VWS V14.01,2013-02-11 23:34:00,
2013-02-11 15:39:00,45.5,41.6,30.56,South,180,0.0,0.0,86,0.00,,---,0.00,VWS V14.01,2013-02-11 23:39:00,
2013-02-11 15:44:00,45.5,41.6,30.56,South,180,0.0,0.0,86,0.00,,---,0.00,VWS V14.01,2013-02-11 23:44:00,
2013-02-11 15:49:00,45.5,41.6,30.56,South,180,0.0,0.0,86,0.00,,---,0.00,VWS V14.01,2013-02-11 23:49:00,
2013-02-11 15:54:00,45.5,41.9,30.56,South,180,0.0,0.0,87,0.00,,---,0.00,VWS V14.01,2013-02-11 23:54:00,
2013-02-11 15:59:00,45.5,41.9,30.56,South,180,1.1,1.1,87,0.00,,---,0.00,VWS V14.01,2013-02-11 23:59:00,
2013-02-11 16:04:00,45.5,41.9,30.56,South,180,0.4,0.4,87,0.00,,---,0.00,VWS V14.01,2013-02-12 00:04:00,
2013-02-11 16:09:00,45.4,41.8,30.56,South,180,0.0,0.0,87,0.00,,---,0.00,VWS V14.01,2013-02-12 00:09:00,
2013-02-11 16:14:00,45.4,41.8,30.56,South,180,0.4,0.4,87,0.00,,---,0.00,VWS V14.01,2013-02-12 00:14:00,
2013-02-11 16:19:00,45.4,42.1,30.56,South,180,1.8,1.8,88,0.00,,---,0.00,VWS V14.01,2013-02-12 00:19:00,
2013-02-11 16:24:00,45.4,41.8,30.56,South,180,0.7,0.7,87,0.00,,---,0.00,VWS V14.01,2013-02-12 00:24:00,
2013-02-11 16:29:00,45.4,42.1,30.56,South,180,0.0,0.0,88,0.00,,---,0.00,VWS V14.01,2013-02-12 00:29:00,
2013-02-11 16:34:00,45.4,42.1,30.56,South,180,0.0,0.0,88,0.00,,---,0.00,VWS V14.01,2013-02-12 00:34:00,
2013-02-11 16:39:00,45.2,41.9,30.56,South,180,0.7,0.7,88,0.00,,---,0.00,VWS V14.01,2013-02-12 00:39:00,
2013-02-11 16:44:00,45.2,41.9,30.56,South,180,0.0,0.0,88,0.00,,---,0.00,VWS V14.01,2013-02-12 00:44:00,
2013-02-11 16:49:00,45.4,42.1,30.56,South,180,0.0,0.0,88,0.00,,---,0.00,VWS V14.01,2013-02-12 00:49:00,
2013-02-11 16:54:00,45.2,41.9,30.56,South,180,0.0,0.4,88,0.00,,---,0.00,VWS V14.01,2013-02-12 00:54:00,
2013-02-11 16:59:00,45.2,41.9,30.56,South,180,0.0,0.0,88,0.00,,---,0.00,VWS V14.01,2013-02-12 00:59:00,
2013-02-11 17:04:00,45.2,41.9,30.56,South,180,1.1,1.1,88,0.00,,---,0.00,VWS V14.01,2013-02-12 01:04:00,
2013-02-11 17:09:00,45.2,41.9,30.56,South,180,0.4,0.4,88,0.00,,---,0.00,VWS V14.01,2013-02-12 01:09:00,
2013-02-11 17:14:00,45.0,41.7,30.56,South,180,1.1,1.1,88,0.00,,---,0.00,VWS V14.01,2013-02-12 01:14:00,
2013-02-11 17:19:00,45.0,41.7,30.56,South,180,0.4,0.4,88,0.00,,---,0.00,VWS V14.01,2013-02-12 01:19:00,
2013-02-11 17:24:00,45.0,41.7,30.56,South,180,1.1,1.1,88,0.00,,---,0.00,VWS V14.01,2013-02-12 01:24:00,
2013-02-11 17:29:00,44.8,41.5,30.56,South,180,1.1,1.1,88,0.00,,---,0.00,VWS V14.01,2013-02-12 01:29:00,
2013-02-11 17:34:00,44.8,41.5,30.56,South,180,0.0,0.0,88,0.00,,---,0.00,VWS V14.01,2013-02-12 01:34:00,
2013-02-11 17:39:00,44.8,41.5,30.56,South,180,0.0,0.0,88,0.00,,---,0.00,VWS V14.01,2013-02-12 01:39:00,
2013-02-11 17:44:00,44.6,41.3,30.56,South,180,0.4,0.4,88,0.00,,---,0.00,VWS V14.01,2013-02-12 01:44:00,
2013-02-11 17:49:00,44.6,41.3,30.56,South,180,0.0,0.0,88,0.00,,---,0.00,VWS V14.01,2013-02-12 01:49:00,
2013-02-11 17:54:00,44.6,41.3,30.56,South,180,0.0,0.0,88,0.00,,---,0.00,VWS V14.01,2013-02-12 01:54:00,
2013-02-11 17:59:00,44.5,41.5,30.57,South,180,0.0,0.0,89,0.00,,---,0.00,VWS V14.01,2013-02-12 01:59:00,
2013-02-11 18:04:00,44.5,41.5,30.57,South,180,0.0,0.0,89,0.00,,---,0.00,VWS V14.01,2013-02-12 02:04:00,
2013-02-11 18:09:00,44.5,41.2,30.57,South,180,0.2,0.2,88,0.00,,---,0.00,VWS V14.01,2013-02-12 02:09:00,
2013-02-11 18:14:00,44.5,41.2,30.57,South,180,0.2,0.4,88,0.00,,---,0.00,VWS V14.01,2013-02-12 02:14:00,
2013-02-11 18:19:00,44.3,41.0,30.57,South,180,0.0,0.0,88,0.00,,---,0.00,VWS V14.01,2013-02-12 02:19:00,
2013-02-11 18:24:00,44.3,41.0,30.57,South,180,0.0,0.0,88,0.00,,---,0.00,VWS V14.01,2013-02-12 02:24:00,
2013-02-11 18:29:00,44.3,41.0,30.57,South,180,0.0,0.0,88,0.00,,---,0.00,VWS V14.01,2013-02-12 02:29:00,
2013-02-11 18:34:00,44.3,41.0,30.57,South,180,0.2,0.2,88,0.00,,---,0.00,VWS V14.01,2013-02-12 02:34:00,
2013-02-11 18:39:00,44.1,40.8,30.57,South,180,0.0,0.0,88,0.00,,---,0.00,VWS V14.01,2013-02-12 02:39:00,
2013-02-11 18:44:00,44.1,40.8,30.57,South,180,0.0,0.4,88,0.00,,---,0.00,VWS V14.01,2013-02-12 02:44:00,
2013-02-11 18:49:00,44.1,41.1,30.57,South,180,0.9,0.9,89,0.00,,---,0.00,VWS V14.01,2013-02-12 02:49:00,
2013-02-11 18:54:00,43.9,40.9,30.57,South,180,0.0,0.0,89,0.00,,---,0.00,VWS V14.01,2013-02-12 02:54:00,
2013-02-11 18:59:00,43.9,40.9,30.57,South,180,0.7,0.7,89,0.00,,---,0.00,VWS V14.01,2013-02-12 02:59:00,
2013-02-11 19:04:00,43.9,40.9,30.57,South,180,0.0,0.0,89,0.00,,---,0.00,VWS V14.01,2013-02-12 03:04:00,
2013-02-11 19:09:00,43.9,40.9,30.57,South,180,0.0,0.0,89,0.00,,---,0.00,VWS V14.01,2013-02-12 03:09:00,
2013-02-11 19:14:00,43.9,40.9,30.57,South,180,1.1,1.1,89,0.00,,---,0.00,VWS V14.01,2013-02-12 03:14:00,
2013-02-11 19:19:00,43.9,40.9,30.57,South,180,0.4,0.4,89,0.00,,---,0.00,VWS V14.01,2013-02-12 03:19:00,
2013-02-11 19:24:00,43.9,40.9,30.57,South,180,0.7,0.7,89,0.00,,---,0.00,VWS V14.01,2013-02-12 03:24:00,
2013-02-11 19:29:00,43.9,40.9,30.57,South,180,0.0,0.0,89,0.00,,---,0.00,VWS V14.01,2013-02-12 03:29:00,
2013-02-11 19:34:00,43.9,40.9,30.57,South,180,0.0,0.0,89,0.00,,---,0.00,VWS V14.01,2013-02-12 03:34:00,
2013-02-11 19:39:00,43.7,41.0,30.57,South,180,0.0,0.0,90,0.00,,---,0.00,VWS V14.01,2013-02-12 03:39:00,
2013-02-11 19:44:00,43.7,40.7,30.57,South,180,0.4,0.4,89,0.00,,---,0.00,VWS V14.01,2013-02-12 03:44:00,
2013-02-11 19:49:00,43.7,41.0,30.57,South,180,0.0,0.0,90,0.00,,---,0.00,VWS V14.01,2013-02-12 03:49:00,
2013-02-11 19:54:00,43.7,40.7,30.57,South,180,0.4,0.4,89,0.00,,---,0.00,VWS V14.01,2013-02-12 03:54:00,
2013-02-11 19:59:00,43.6,40.6,30.57,South,180,1.1,1.1,89,0.00,,---,0.00,VWS V14.01,2013-02-12 03:59:00,
2013-02-11 20:04:00,43.6,40.6,30.57,South,180,0.7,1.1,89,0.00,,---,0.00,VWS V14.01,2013-02-12 04:04:00,
2013-02-11 20:09:00,43.6,40.6,30.57,South,180,0.7,0.7,89,0.00,,---,0.00,VWS V14.01,2013-02-12 04:09:00,
2013-02-11 20:14:00,43.6,40.9,30.57,South,180,0.0,0.0,90,0.00,,---,0.00,VWS V14.01,2013-02-12 04:14:00,
2013-02-11 20:19:00,43.6,40.9,30.57,South,180,0.7,1.3,90,0.00,,---,0.00,VWS V14.01,2013-02-12 04:19:00,
2013-02-11 20:24:00,43.6,40.9,30.57,South,180,0.4,0.4,90,0.00,,---,0.00,VWS V14.01,2013-02-12 04:24:00,
2013-02-11 20:29:00,43.6,40.9,30.57,South,180,0.0,0.0,90,0.00,,---,0.00,VWS V14.01,2013-02-12 04:29:00,
2013-02-11 20:34:00,43.4,40.7,30.57,South,180,0.4,0.4,90,0.00,,---,0.00,VWS V14.01,2013-02-12 04:34:00,
2013-02-11 20:39:00,43.4,40.7,30.57,South,180,0.9,0.9,90,0.00,,---,0.00,VWS V14.01,2013-02-12 04:39:00,
2013-02-11 20:44:00,43.2,40.5,30.57,South,180,1.8,1.8,90,0.00,,---,0.00,VWS V14.01,2013-02-12 04:44:00,
2013-02-11 20:49:00,43.2,40.5,30.57,South,180,0.9,0.9,90,0.00,,---,0.00,VWS V14.01,2013-02-12 04:49:00,
2013-02-11 20:54:00,43.0,40.3,30.57,South,180,0.0,0.2,90,0.00,,---,0.00,VWS V14.01,2013-02-12 04:54:00,
2013-02-11 20:59:00,43.0,40.3,30.57,South,180,0.0,0.2,90,0.00,,---,0.00,VWS V14.01,2013-02-12 04:59:00,
2013-02-11 21:00:00,43.0,40.3,30.57,South,180,0.0,0.0,90,0.00,,---,0.00,VWS V14.01,2013-02-12 05:00:00,
2013-02-11 21:05:00,43.0,40.3,30.57,South,180,0.0,0.0,90,0.00,,---,0.00,VWS V14.01,2013-02-12 05:05:00,
2013-02-11 21:10:00,42.8,40.1,30.57,South,180,0.0,0.0,90,0.00,,---,0.00,VWS V14.01,2013-02-12 05:10:00,
2013-02-11 21:15:00,42.8,40.1,30.57,South,180,0.0,0.0,90,0.00,,---,0.00,VWS V14.01,2013-02-12 05:15:00,
2013-02-11 21:20:00,42.8,40.1,30.57,South,180,0.4,0.4,90,0.00,,---,0.00,VWS V14.01,2013-02-12 05:20:00,
2013-02-11 21:25:00,42.8,40.1,30.57,South,180,0.9,0.9,90,0.00,,---,0.00,VWS V14.01,2013-02-12 05:25:00,
2013-02-11 21:30:00,42.8,40.1,30.56,South,180,2.0,2.0,90,0.00,,---,0.00,VWS V14.01,2013-02-12 05:30:00,
2013-02-11 21:35:00,42.8,40.1,30.57,South,180,2.2,2.2,90,0.00,,---,0.00,VWS V14.01,2013-02-12 05:35:00,
2013-02-11 21:40:00,42.8,40.1,30.57,South,180,0.0,0.0,90,0.00,,---,0.00,VWS V14.01,2013-02-12 05:40:00,
2013-02-11 21:45:00,42.8,40.1,30.56,South,180,0.0,0.0,90,0.00,,---,0.00,VWS V14.01,2013-02-12 05:45:00,
2013-02-11 21:50:00,42.8,40.1,30.57,South,180,0.0,0.0,90,0.00,,---,0.00,VWS V14.01,2013-02-12 05:50:00,
2013-02-11 21:55:00,42.8,40.1,30.57,South,180,0.0,0.0,90,0.00,,---,0.00,VWS V14.01,2013-02-12 05:55:00,
2013-02-11 22:00:00,42.7,40.0,30.57,South,180,0.4,0.4,90,0.00,,---,0.00,VWS V14.01,2013-02-12 06:00:00,
2013-02-11 22:05:00,42.7,40.0,30.57,South,180,0.0,0.0,90,0.00,,---,0.00,VWS V14.01,2013-02-12 06:05:00,
2013-02-11 22:10:00,42.7,40.0,30.57,South,180,0.0,0.0,90,0.00,,---,0.00,VWS V14.01,2013-02-12 06:10:00,
2013-02-11 22:15:00,42.7,40.0,30.57,South,180,0.0,0.4,90,0.00,,---,0.00,VWS V14.01,2013-02-12 06:15:00,
2013-02-11 22:20:00,42.7,40.0,30.57,South,180,1.1,1.1,90,0.00,,---,0.00,VWS V14.01,2013-02-12 06:20:00,
2013-02-11 22:25:00,42.7,40.0,30.57,South,180,0.0,0.0,90,0.00,,---,0.00,VWS V14.01,2013-02-12 06:25:00,
2013-02-11 22:30:00,42.7,40.0,30.58,South,180,0.4,0.4,90,0.00,,---,0.00,VWS V14.01,2013-02-12 06:30:00,
2013-02-11 22:35:00,42.7,40.0,30.58,South,180,0.0,0.0,90,0.00,,---,0.00,VWS V14.01,2013-02-12 06:35:00,
2013-02-11 22:40:00,42.7,40.0,30.58,South,180,0.4,0.4,90,0.00,,---,0.00,VWS V14.01,2013-02-12 06:40:00,
2013-02-11 22:45:00,42.7,40.0,30.58,South,180,0.0,0.0,90,0.00,,---,0.00,VWS V14.01,2013-02-12 06:45:00,
2013-02-11 22:50:00,42.7,40.3,30.58,South,180,0.4,0.4,91,0.00,,---,0.00,VWS V14.01,2013-02-12 06:50:00,
2013-02-11 22:55:00,42.7,40.3,30.58,South,180,0.0,0.0,91,0.00,,---,0.00,VWS V14.01,2013-02-12 06:55:00,
2013-02-11 23:00:00,42.7,40.3,30.58,South,180,0.4,0.4,91,0.00,,---,0.00,VWS V14.01,2013-02-12 07:00:00,
2013-02-11 23:05:00,42.7,40.3,30.58,South,180,0.2,0.2,91,0.00,,---,0.00,VWS V14.01,2013-02-12 07:05:00,
2013-02-11 23:10:00,42.7,40.3,30.58,South,180,0.0,0.0,91,0.00,,---,0.00,VWS V14.01,2013-02-12 07:10:00,
2013-02-11 23:15:00,42.7,40.3,30.59,South,180,0.0,0.0,91,0.00,,---,0.00,VWS V14.01,2013-02-12 07:15:00,
2013-02-11 23:20:00,42.7,40.3,30.59,South,180,0.0,0.0,91,0.00,,---,0.00,VWS V14.01,2013-02-12 07:20:00,
2013-02-11 23:25:00,42.7,40.3,30.59,South,180,0.4,0.4,91,0.00,,---,0.00,VWS V14.01,2013-02-12 07:25:00,
2013-02-11 23:30:00,42.7,40.3,30.59,South,180,0.4,0.4,91,0.00,,---,0.00,VWS V14.01,2013-02-12 07:30:00,
2013-02-11 23:35:00,42.7,40.3,30.59,South,180,0.7,0.7,91,0.00,,---,0.00,VWS V14.01,2013-02-12 07:35:00,
2013-02-11 23:40:00,42.7,40.3,30.59,South,180,1.1,1.1,91,0.00,,---,0.00,VWS V14.01,2013-02-12 07:40:00,
2013-02-11 23:45:00,42.7,40.3,30.59,South,180,1.1,1.1,91,0.00,,---,0.00,VWS V14.01,2013-02-12 07:45:00,
2013-02-11 23:50:00,42.7,40.3,30.59,South,180,0.0,0.0,91,0.00,,---,0.00,VWS V14.01,2013-02-12 07:50:00,
2013-02-11 23:55:00,42.7,40.3,30.59,South,180,0.7,1.1,91,0.00,,---,0.00,VWS V14.01,2013-02-12 07:55:00,